createdAt,value
2022-12-19T00:00:36.692Z,6.50
2022-12-19T00:03:24.678Z,6.50
2022-12-19T00:05:52.819Z,5.60
2022-12-19T00:08:20.734Z,6.20
2022-12-19T00:11:00.893Z,5.90
2022-12-19T00:13:31.199Z,5.00
2022-12-19T00:16:09.306Z,6.20
2022-12-19T00:18:39.818Z,6.00
2022-12-19T00:21:09.388Z,7.10
2022-12-19T00:23:37.744Z,6.50
2022-12-19T00:26:11.660Z,6.20
2022-12-19T00:28:41.332Z,6.70
2022-12-19T00:31:10.693Z,6.90
2022-12-19T00:33:42.587Z,7.80
2022-12-19T00:36:16.855Z,7.40
2022-12-19T00:38:52.326Z,6.70
2022-12-19T00:41:23.396Z,7.40
2022-12-19T00:44:00.850Z,12.30
2022-12-19T00:46:31.030Z,13.20
2022-12-19T00:48:59.798Z,11.40
2022-12-19T00:51:30.279Z,11.60
2022-12-19T00:53:58.852Z,11.80
2022-12-19T00:56:30.198Z,11.40
2022-12-19T00:58:58.865Z,9.70
2022-12-19T01:01:34.776Z,9.40
2022-12-19T01:04:27.712Z,8.30
2022-12-19T01:06:52.883Z,7.20
2022-12-19T01:09:22.715Z,6.00
2022-12-19T01:12:08.991Z,6.60
2022-12-19T01:14:36.944Z,5.20
2022-12-19T01:17:04.849Z,5.90
2022-12-19T01:19:32.787Z,5.70
2022-12-19T01:22:00.750Z,5.50
2022-12-19T01:24:29.084Z,6.10
2022-12-19T01:26:56.992Z,6.60
2022-12-19T01:29:25.004Z,6.00
2022-12-19T01:31:52.909Z,6.40
2022-12-19T01:34:20.812Z,5.50
2022-12-19T01:36:48.722Z,6.20
2022-12-19T01:39:16.611Z,6.30
2022-12-19T01:41:44.460Z,6.10
2022-12-19T01:44:12.390Z,6.50
2022-12-19T01:46:45.459Z,6.30
2022-12-19T01:49:34.941Z,6.80
2022-12-19T01:52:07.778Z,7.60
2022-12-19T01:54:40.274Z,8.40
2022-12-19T01:57:13.792Z,8.50
2022-12-19T02:02:30.425Z,6.80
2022-12-19T02:04:58.816Z,7.30
2022-12-19T02:07:27.295Z,7.00
2022-12-19T02:09:57.734Z,6.30
2022-12-19T02:12:35.827Z,6.30
2022-12-19T02:15:06.379Z,5.80
2022-12-19T02:17:52.632Z,6.30
2022-12-19T02:21:06.273Z,5.60
2022-12-19T02:23:58.524Z,6.80
2022-12-19T02:26:32.975Z,6.30
2022-12-19T02:29:09.717Z,5.60
2022-12-19T02:31:49.021Z,6.30
2022-12-19T02:34:42.734Z,6.40
2022-12-19T02:37:20.815Z,5.50
2022-12-19T02:40:02.872Z,6.30
2022-12-19T02:42:35.245Z,5.90
2022-12-19T02:45:08.077Z,6.70
2022-12-19T02:47:38.466Z,6.90
2022-12-19T02:50:08.154Z,6.20
2022-12-19T02:52:36.116Z,6.10
2022-12-19T02:55:07.979Z,7.00
2022-12-19T02:57:51.280Z,7.10
2022-12-19T03:00:22.605Z,6.30
2022-12-19T03:03:01.217Z,6.50
2022-12-19T03:05:35.936Z,6.70
2022-12-19T03:08:28.813Z,7.60
2022-12-19T03:11:06.418Z,7.60
2022-12-19T03:13:58.610Z,7.80
2022-12-19T03:16:27.087Z,8.10
2022-12-19T03:18:56.621Z,9.10
2022-12-19T03:21:29.621Z,8.30
2022-12-19T03:23:58.856Z,8.00
2022-12-19T03:26:31.240Z,8.20
2022-12-19T03:29:10.995Z,9.30
2022-12-19T03:31:39.840Z,8.40
2022-12-19T03:34:18.350Z,8.50
2022-12-19T03:36:53.496Z,8.20
2022-12-19T03:39:23.555Z,9.00
2022-12-19T03:42:11.146Z,8.90
2022-12-19T03:44:42.390Z,8.40
2022-12-19T03:47:21.249Z,8.50
2022-12-19T03:49:50.079Z,8.70
2022-12-19T03:52:39.874Z,8.60
2022-12-19T03:55:26.686Z,9.10
2022-12-19T03:58:10.543Z,8.70
2022-12-19T04:00:43.665Z,8.60
2022-12-19T04:03:12.143Z,9.10
2022-12-19T04:05:42.065Z,9.40
2022-12-19T04:08:12.146Z,9.30
2022-12-19T04:10:47.677Z,9.40
2022-12-19T04:13:21.541Z,8.90
2022-12-19T04:16:19.016Z,9.10
2022-12-19T04:18:57.195Z,9.00
2022-12-19T04:21:36.860Z,9.00
2022-12-19T04:24:11.687Z,8.90
2022-12-19T04:26:41.384Z,10.10
2022-12-19T04:29:13.893Z,9.40
2022-12-19T04:31:43.502Z,9.50
2022-12-19T04:34:11.352Z,9.50
2022-12-19T04:36:39.298Z,9.60
2022-12-19T04:39:07.295Z,9.40
2022-12-19T04:41:35.172Z,10.00
2022-12-19T04:44:03.150Z,10.00
2022-12-19T04:46:31.154Z,10.30
2022-12-19T04:48:59.089Z,9.70
2022-12-19T04:51:26.961Z,10.60
2022-12-19T04:53:54.909Z,9.50
2022-12-19T04:56:23.170Z,10.40
2022-12-19T04:58:59.382Z,9.90
2022-12-19T05:01:28.050Z,11.20
2022-12-19T05:04:01.278Z,10.00
2022-12-19T05:06:32.108Z,10.00
2022-12-19T05:09:00.044Z,10.70
2022-12-19T05:11:27.962Z,11.50
2022-12-19T05:13:55.931Z,11.50
2022-12-19T05:16:23.861Z,11.80
2022-12-19T05:18:53.233Z,11.30
2022-12-19T05:21:23.023Z,12.20
2022-12-19T05:23:51.469Z,12.10
2022-12-19T05:26:19.545Z,11.70
2022-12-19T05:28:47.532Z,12.00
2022-12-19T05:31:19.874Z,11.80
2022-12-19T05:33:48.399Z,12.10
2022-12-19T05:36:17.963Z,11.80
2022-12-19T05:38:45.919Z,10.50
2022-12-19T05:41:17.105Z,12.40
2022-12-19T05:43:49.111Z,12.50
2022-12-19T05:46:17.647Z,12.20
2022-12-19T05:48:45.917Z,12.10
2022-12-19T05:51:14.463Z,12.30
2022-12-19T05:53:42.600Z,12.10
2022-12-19T05:56:11.760Z,12.90
2022-12-19T05:58:41.437Z,13.20
2022-12-19T06:01:13.934Z,14.10
2022-12-19T06:03:42.405Z,12.30
2022-12-19T06:06:13.303Z,13.10
2022-12-19T06:08:42.046Z,14.10
2022-12-19T06:11:11.389Z,14.20
2022-12-19T06:13:40.343Z,15.30
2022-12-19T06:16:12.964Z,14.50
2022-12-19T06:18:44.769Z,14.90
2022-12-19T06:21:16.316Z,15.70
2022-12-19T06:23:45.149Z,14.90
2022-12-19T06:26:19.566Z,15.90
2022-12-19T06:28:50.271Z,17.40
2022-12-19T06:31:19.842Z,15.20
2022-12-19T06:33:48.309Z,17.20
2022-12-19T06:36:20.541Z,16.30
2022-12-19T06:38:49.361Z,17.20
2022-12-19T06:41:36.603Z,15.90
2022-12-19T06:44:07.477Z,16.40
2022-12-19T06:46:37.323Z,15.60
2022-12-19T06:49:05.792Z,15.30
2022-12-19T06:51:34.942Z,16.90
2022-12-19T06:54:03.323Z,15.20
2022-12-19T06:56:39.035Z,15.80
2022-12-19T06:59:07.800Z,15.60
2022-12-19T07:02:05.655Z,15.00
2022-12-19T07:04:41.851Z,14.60
2022-12-19T07:07:09.947Z,14.70
2022-12-19T07:09:37.941Z,15.00
2022-12-19T07:12:06.052Z,15.50
2022-12-19T07:14:34.076Z,15.90
2022-12-19T07:17:03.284Z,14.90
2022-12-19T07:19:32.773Z,13.80
2022-12-19T07:22:03.056Z,17.40
2022-12-19T07:24:31.143Z,14.70
2022-12-19T07:26:59.163Z,13.30
2022-12-19T07:29:27.209Z,14.30
2022-12-19T07:31:55.229Z,14.70
2022-12-19T07:34:23.260Z,14.10
2022-12-19T07:36:51.242Z,14.60
2022-12-19T07:39:19.137Z,16.50
2022-12-19T07:41:47.015Z,14.40
2022-12-19T07:44:16.492Z,14.90
2022-12-19T07:46:45.115Z,15.60
2022-12-19T07:49:14.244Z,15.90
2022-12-19T07:51:44.923Z,15.80
2022-12-19T07:54:13.185Z,17.10
2022-12-19T07:56:41.275Z,14.90
2022-12-19T07:59:09.205Z,16.10
2022-12-19T08:01:37.216Z,16.40
2022-12-19T08:04:05.381Z,16.70
2022-12-19T08:06:39.152Z,15.80
2022-12-19T08:09:09.301Z,16.60
2022-12-19T08:11:37.243Z,16.10
2022-12-19T08:14:05.181Z,17.30
2022-12-19T08:16:43.903Z,17.10
2022-12-19T08:19:17.549Z,17.00
2022-12-19T08:21:45.923Z,17.90
2022-12-19T08:24:13.833Z,17.90
2022-12-19T08:26:47.438Z,16.60
2022-12-19T08:29:15.657Z,15.00
2022-12-19T08:31:43.615Z,14.10
2022-12-19T08:34:11.536Z,16.90
2022-12-19T08:36:39.576Z,26.20
2022-12-19T08:39:07.636Z,16.90
2022-12-19T08:41:35.727Z,14.40
2022-12-19T08:44:03.868Z,14.80
2022-12-19T08:46:31.922Z,15.10
2022-12-19T08:49:01.060Z,15.00
2022-12-19T08:51:29.186Z,15.70
2022-12-19T08:53:57.126Z,14.00
2022-12-19T08:56:25.009Z,14.40
2022-12-19T08:58:53.024Z,16.00
2022-12-19T09:01:23.917Z,14.80
2022-12-19T09:05:22.976Z,15.10
2022-12-19T09:06:40.183Z,16.30
2022-12-19T09:09:08.193Z,16.70
2022-12-19T09:11:36.306Z,15.00
2022-12-19T09:14:15.727Z,14.30
2022-12-19T09:16:49.549Z,16.90
2022-12-19T09:19:18.109Z,13.30
2022-12-19T09:21:46.078Z,15.40
2022-12-19T09:24:14.639Z,17.60
2022-12-19T09:26:44.092Z,14.70
2022-12-19T09:29:19.634Z,15.70
2022-12-19T09:31:55.465Z,14.70
2022-12-19T09:34:36.854Z,14.70
2022-12-19T09:37:08.162Z,17.70
2022-12-19T09:39:36.483Z,18.90
2022-12-19T09:42:04.425Z,24.60
2022-12-19T09:44:44.998Z,14.20
2022-12-19T09:47:23.468Z,23.20
2022-12-19T09:49:52.150Z,16.90
2022-12-19T09:52:31.545Z,20.00
2022-12-19T09:55:01.126Z,16.60
2022-12-19T09:57:52.103Z,23.40
2022-12-19T10:00:22.506Z,15.60
2022-12-19T10:03:07.304Z,17.50
2022-12-19T10:07:06.883Z,20.20
2022-12-19T10:09:15.272Z,14.90
2022-12-19T10:12:38.935Z,15.80
2022-12-19T10:14:51.784Z,16.60
2022-12-19T10:17:38.178Z,17.60
2022-12-19T10:20:06.090Z,15.50
2022-12-19T10:23:00.527Z,16.90
2022-12-19T10:25:53.671Z,15.50
2022-12-19T10:28:38.001Z,20.40
2022-12-19T10:31:30.495Z,39.20
2022-12-19T10:34:13.828Z,33.20
2022-12-19T10:37:26.899Z,42.30
2022-12-19T10:39:53.265Z,23.50
2022-12-19T10:42:47.809Z,21.90
2022-12-19T10:45:19.241Z,17.20
2022-12-19T10:47:49.840Z,18.10
2022-12-19T10:50:22.492Z,16.30
2022-12-19T10:52:54.738Z,14.20
2022-12-19T10:55:40.894Z,16.60
2022-12-19T10:58:20.376Z,16.70
2022-12-19T11:00:54.152Z,14.70
2022-12-19T11:05:57.729Z,15.40
2022-12-19T11:08:31.480Z,17.40
2022-12-19T11:12:10.270Z,16.20
2022-12-19T11:18:30.281Z,14.80
2022-12-19T11:24:04.347Z,15.20
2022-12-19T11:29:18.794Z,15.70
2022-12-19T11:30:05.359Z,17.10
2022-12-19T11:30:09.324Z,15.10
2022-12-19T11:30:37.769Z,17.00
2022-12-19T11:34:15.803Z,16.40
2022-12-19T11:36:50.455Z,16.10
2022-12-19T11:39:26.058Z,18.50
2022-12-19T11:42:20.050Z,18.20
2022-12-19T11:45:02.920Z,17.40
2022-12-19T11:47:38.371Z,15.50
2022-12-19T11:50:21.825Z,18.50
2022-12-19T11:53:05.156Z,17.00
2022-12-19T11:55:46.542Z,18.40
2022-12-19T11:58:14.451Z,19.20
2022-12-19T12:01:05.041Z,16.80
2022-12-19T12:04:24.165Z,18.40
2022-12-19T12:06:54.352Z,20.30
2022-12-19T12:16:32.426Z,17.50
2022-12-19T12:22:10.279Z,17.70
2022-12-19T12:29:21.030Z,16.70
2022-12-19T12:31:17.245Z,18.70
2022-12-19T12:31:22.105Z,18.20
2022-12-19T12:31:42.233Z,20.40
2022-12-19T12:31:44.251Z,18.50
2022-12-19T12:38:12.271Z,19.30
2022-12-19T12:40:24.194Z,20.20
2022-12-19T12:43:21.742Z,24.00
2022-12-19T12:45:49.853Z,18.60
2022-12-19T12:48:26.767Z,17.20
2022-12-19T12:50:58.807Z,19.60
2022-12-19T12:53:38.533Z,18.70
2022-12-19T12:56:10.001Z,17.90
2022-12-19T12:59:03.792Z,20.40
2022-12-19T13:01:40.514Z,19.80
2022-12-19T13:04:11.290Z,18.40
2022-12-19T13:06:51.270Z,20.00
2022-12-19T13:09:37.724Z,20.00
2022-12-19T13:12:43.109Z,20.40
2022-12-19T13:15:22.887Z,20.40
2022-12-19T13:17:50.917Z,20.20
2022-12-19T13:20:19.037Z,21.40
2022-12-19T13:23:19.800Z,19.20
2022-12-19T13:25:53.931Z,19.90
2022-12-19T13:28:22.062Z,21.60
2022-12-19T13:31:19.993Z,21.50
2022-12-19T13:33:55.760Z,21.30
2022-12-19T13:39:49.684Z,20.30
2022-12-19T13:40:10.955Z,21.00
2022-12-19T13:43:20.569Z,21.60
2022-12-19T13:45:53.638Z,22.30
2022-12-19T13:48:36.076Z,18.90
2022-12-19T13:51:07.483Z,19.40
2022-12-19T13:53:35.695Z,19.30
2022-12-19T13:56:05.617Z,19.20
2022-12-19T13:58:42.333Z,19.70
2022-12-19T14:01:20.768Z,22.70
2022-12-19T14:03:51.593Z,21.10
2022-12-19T14:06:26.249Z,21.20
2022-12-19T14:11:28.227Z,22.40
2022-12-19T14:13:39.817Z,21.80
2022-12-19T14:15:13.209Z,22.30
2022-12-19T14:17:48.498Z,19.60
2022-12-19T14:22:02.211Z,19.40
2022-12-19T14:23:12.409Z,21.60
2022-12-19T14:28:17.164Z,21.30
2022-12-19T14:28:54.513Z,20.10
2022-12-19T14:31:25.032Z,20.70
2022-12-19T14:36:49.599Z,22.00
2022-12-19T14:39:22.829Z,20.40
2022-12-19T14:42:31.585Z,18.90
2022-12-19T14:52:35.084Z,19.40
2022-12-19T14:54:05.643Z,21.10
2022-12-19T14:54:20.820Z,23.80
2022-12-19T14:57:25.619Z,24.70
2022-12-19T15:01:08.879Z,24.40
2022-12-19T15:03:25.831Z,25.00
2022-12-19T15:07:05.445Z,25.20
2022-12-19T15:10:58.685Z,22.80
2022-12-19T15:12:39.687Z,20.20
2022-12-19T15:15:36.994Z,20.50
2022-12-19T15:18:19.155Z,19.20
2022-12-19T15:20:47.454Z,19.10
2022-12-19T15:23:21.718Z,19.40
2022-12-19T15:26:08.379Z,19.50
2022-12-19T15:28:43.910Z,21.60
2022-12-19T15:31:38.700Z,26.00
2022-12-19T15:34:37.200Z,19.80
2022-12-19T15:37:06.164Z,19.70
2022-12-19T15:39:34.050Z,21.30
2022-12-19T15:42:02.428Z,20.10
2022-12-19T15:44:44.534Z,20.00
2022-12-19T15:47:25.786Z,18.40
2022-12-19T15:49:53.734Z,18.70
2022-12-19T15:52:22.324Z,17.60
2022-12-19T15:54:51.004Z,18.40
2022-12-19T15:57:36.519Z,19.30
2022-12-19T16:00:16.749Z,19.20
2022-12-19T16:05:33.250Z,18.90
2022-12-19T16:08:01.523Z,22.90
2022-12-19T16:10:29.900Z,19.70
2022-12-19T16:12:58.280Z,19.40
2022-12-19T16:15:32.535Z,18.00
2022-12-19T16:18:03.167Z,22.20
2022-12-19T16:20:36.036Z,19.20
2022-12-19T16:23:04.112Z,16.80
2022-12-19T16:25:40.778Z,20.00
2022-12-19T16:28:17.205Z,17.40
2022-12-19T16:30:45.295Z,18.60
2022-12-19T16:33:33.442Z,17.50
2022-12-19T16:36:04.625Z,17.50
2022-12-19T16:38:33.381Z,18.80
2022-12-19T16:41:04.505Z,18.60
2022-12-19T16:43:37.446Z,18.20
2022-12-19T16:46:07.377Z,18.70
2022-12-19T16:48:38.272Z,20.80
2022-12-19T16:51:17.765Z,22.00
2022-12-19T16:53:46.409Z,19.80
2022-12-19T16:56:31.363Z,19.00
2022-12-19T16:59:02.405Z,20.00
2022-12-19T17:01:30.508Z,19.70
2022-12-19T17:03:58.452Z,20.00
2022-12-19T17:06:26.632Z,19.10
2022-12-19T17:08:54.586Z,20.60
2022-12-19T17:11:26.276Z,21.80
2022-12-19T17:14:02.994Z,20.70
2022-12-19T17:16:31.559Z,18.90
2022-12-19T17:18:59.772Z,21.20
2022-12-19T17:21:27.689Z,21.50
2022-12-19T17:23:55.666Z,20.20
2022-12-19T17:26:23.627Z,22.90
2022-12-19T17:28:51.895Z,20.40
2022-12-19T17:31:26.788Z,20.40
2022-12-19T17:33:57.858Z,17.50
2022-12-19T17:36:34.759Z,18.30
2022-12-19T17:39:33.578Z,17.80
2022-12-19T17:42:13.744Z,18.10
2022-12-19T17:44:41.785Z,17.70
2022-12-19T17:47:17.215Z,17.30
2022-12-19T17:49:45.972Z,18.00
2022-12-19T17:52:18.749Z,17.40
2022-12-19T17:54:47.107Z,17.00
2022-12-19T17:57:16.482Z,17.10
2022-12-19T17:59:46.429Z,16.60
2022-12-19T18:02:26.289Z,17.40
2022-12-19T18:04:55.017Z,16.20
2022-12-19T18:07:23.084Z,17.00
2022-12-19T18:09:50.992Z,16.30
2022-12-19T18:12:19.351Z,16.00
2022-12-19T18:14:47.266Z,17.50
2022-12-19T18:17:27.681Z,14.40
2022-12-19T18:19:55.732Z,18.40
2022-12-19T18:22:23.644Z,17.30
2022-12-19T18:24:51.981Z,17.00
2022-12-19T18:27:19.955Z,17.00
2022-12-19T18:29:47.907Z,17.10
2022-12-19T18:32:20.428Z,17.10
2022-12-19T18:34:48.356Z,17.10
2022-12-19T18:37:16.810Z,18.30
2022-12-19T18:39:45.503Z,17.10
2022-12-19T18:42:21.530Z,16.50
2022-12-19T18:44:49.613Z,16.50
2022-12-19T18:47:25.543Z,17.00
2022-12-19T18:49:53.476Z,16.70
2022-12-19T18:52:21.393Z,16.80
2022-12-19T18:54:49.360Z,17.70
2022-12-19T18:57:17.243Z,18.00
2022-12-19T18:59:45.258Z,16.70
2022-12-19T19:02:27.581Z,17.90
2022-12-19T19:04:56.163Z,16.60
2022-12-19T19:07:24.265Z,17.20
2022-12-19T19:09:52.721Z,19.20
2022-12-19T19:12:42.898Z,16.60
2022-12-19T19:15:11.289Z,17.50
2022-12-19T19:17:40.184Z,18.30
2022-12-19T19:20:08.848Z,18.70
2022-12-19T19:22:36.793Z,18.40
2022-12-19T19:25:05.541Z,18.00
2022-12-19T19:27:33.766Z,17.80
2022-12-19T19:30:01.691Z,18.40
2022-12-19T19:32:29.764Z,17.40
2022-12-19T19:34:57.755Z,17.20
2022-12-19T19:37:27.164Z,17.40
2022-12-19T19:39:55.044Z,18.20
2022-12-19T19:42:22.934Z,18.30
2022-12-19T19:44:50.837Z,19.10
2022-12-19T19:47:25.367Z,20.50
2022-12-19T19:49:53.658Z,19.30
2022-12-19T19:52:21.798Z,20.50
2022-12-19T19:54:49.666Z,19.60
2022-12-19T19:57:17.612Z,19.30
2022-12-19T19:59:45.474Z,20.00
2022-12-19T20:02:13.707Z,18.90
2022-12-19T20:04:45.719Z,18.70
2022-12-19T20:07:13.698Z,18.50
2022-12-19T20:09:41.529Z,18.10
2022-12-19T20:12:09.967Z,17.70
2022-12-19T20:14:37.933Z,17.30
2022-12-19T20:17:05.897Z,17.70
2022-12-19T20:19:33.833Z,17.40
2022-12-19T20:22:02.108Z,17.10
2022-12-19T20:24:30.290Z,18.10
2022-12-19T20:26:59.079Z,16.80
2022-12-19T20:29:27.393Z,17.90
2022-12-19T20:31:56.419Z,16.90
2022-12-19T20:34:24.413Z,17.00
2022-12-19T20:36:52.326Z,16.50
2022-12-19T20:39:22.285Z,18.60
2022-12-19T20:41:51.531Z,16.80
2022-12-19T20:44:24.056Z,17.00
2022-12-19T20:46:53.069Z,18.20
2022-12-19T20:49:21.544Z,16.90
2022-12-19T20:51:49.474Z,16.60
2022-12-19T20:54:18.282Z,17.30
2022-12-19T20:56:46.326Z,17.00
2022-12-19T20:59:14.306Z,17.10
2022-12-19T21:01:42.371Z,17.30
2022-12-19T21:04:10.556Z,18.50
2022-12-19T21:06:39.421Z,16.40
2022-12-19T21:09:07.616Z,16.20
2022-12-19T21:11:36.589Z,16.00
2022-12-19T21:14:05.914Z,16.90
2022-12-19T21:16:34.203Z,15.70
2022-12-19T21:19:02.138Z,16.00
2022-12-19T21:21:30.254Z,15.70
2022-12-19T21:24:02.020Z,14.60
2022-12-19T21:26:30.492Z,15.80
2022-12-19T21:28:59.322Z,16.30
2022-12-19T21:31:29.875Z,15.50
2022-12-19T21:33:59.955Z,16.10
2022-12-19T21:36:29.958Z,17.80
2022-12-19T21:39:00.150Z,17.50
2022-12-19T21:41:28.760Z,16.50
2022-12-19T21:43:57.888Z,17.80
2022-12-19T21:46:28.558Z,16.70
2022-12-19T21:48:57.318Z,16.30
2022-12-19T21:51:30.686Z,17.10
2022-12-19T21:54:00.933Z,18.00
2022-12-19T21:56:39.010Z,15.50
2022-12-19T21:59:12.106Z,16.10
2022-12-19T22:01:41.613Z,16.70
2022-12-19T22:04:16.218Z,16.70
2022-12-19T22:06:44.185Z,17.50
2022-12-19T22:09:19.383Z,17.80
2022-12-19T22:11:47.341Z,17.90
2022-12-19T22:14:16.798Z,17.00
2022-12-19T22:16:44.795Z,17.20
2022-12-19T22:19:17.689Z,17.50
2022-12-19T22:21:46.926Z,16.50
2022-12-19T22:24:16.922Z,17.20
2022-12-19T22:26:45.105Z,17.20
2022-12-19T22:29:15.860Z,16.10
2022-12-19T22:31:44.889Z,16.50
2022-12-19T22:34:15.981Z,16.20
2022-12-19T22:36:44.390Z,16.30
2022-12-19T22:39:14.489Z,16.50
2022-12-19T22:41:42.933Z,16.90
2022-12-19T22:44:28.782Z,15.80
2022-12-19T22:46:56.749Z,15.60
2022-12-19T22:49:24.697Z,16.40
2022-12-19T22:51:52.570Z,15.70
2022-12-19T22:54:20.445Z,16.10
2022-12-19T22:56:51.749Z,15.50
2022-12-19T22:59:19.941Z,15.30
2022-12-19T23:01:48.090Z,15.40
2022-12-19T23:04:17.549Z,15.80
2022-12-19T23:06:45.857Z,16.10
2022-12-19T23:09:16.333Z,16.10
2022-12-19T23:11:47.646Z,16.90
2022-12-19T23:14:17.173Z,16.30
2022-12-19T23:16:45.203Z,16.10
2022-12-19T23:19:15.447Z,15.10
2022-12-19T23:21:43.896Z,16.40
2022-12-19T23:24:12.292Z,14.50
2022-12-19T23:26:40.694Z,15.50
2022-12-19T23:29:12.125Z,15.30
2022-12-19T23:31:43.072Z,16.00
2022-12-19T23:34:11.067Z,15.70
2022-12-19T23:39:27.386Z,14.30
2022-12-19T23:41:55.292Z,15.30
2022-12-19T23:44:23.273Z,15.20
2022-12-19T23:46:51.234Z,14.80
2022-12-19T23:49:19.144Z,14.40
2022-12-19T23:51:47.026Z,13.90
2022-12-19T23:54:14.922Z,14.30
2022-12-19T23:56:42.836Z,15.70
2022-12-19T23:59:10.736Z,15.00
